Terminal Aerodrome Forecast
Issued by NWS Wichita, KS

Home | Current Version | Previous Version | Graphics & Text | Print | Product List | Glossary On
Versions: 1 2 3 4 5 6 7 8 9 10 11 12 13 14 15 16 17 18 19 20 21 22 23 24 25 26 27 28
000
FTUS43 KICT 180520
TAFICT
TAF
KICT 180520Z 1806/1906 19005KT P6SM BKN200
     FM181200 18007KT P6SM -RA BKN080 OVC150
     FM181700 19013KT P6SM SCT050
     FM190400 16008KT P6SM OVC015=

USA.gov is the U.S. government's official web portal to all federal, state and local government web resources and services.